createdAt,value
2023-01-05T00:03:15.242Z,10.63
2023-01-05T00:08:20.620Z,10.63
2023-01-05T00:13:44.077Z,10.60
2023-01-05T00:19:07.769Z,10.55
2023-01-05T00:24:13.226Z,10.52
2023-01-05T00:29:18.615Z,10.48
2023-01-05T00:34:24.128Z,10.47
2023-01-05T00:39:29.507Z,10.41
2023-01-05T00:44:34.952Z,10.42
2023-01-05T00:49:40.475Z,10.34
2023-01-05T00:54:45.933Z,10.36
2023-01-05T00:59:51.376Z,10.43
2023-01-05T01:04:57.373Z,10.41
2023-01-05T01:10:02.844Z,10.38
2023-01-05T01:15:11.232Z,10.33
2023-01-05T01:20:17.887Z,10.25
2023-01-05T01:25:23.587Z,10.25
2023-01-05T01:30:29.118Z,10.25
2023-01-05T01:35:34.690Z,10.27
2023-01-05T01:40:42.176Z,10.27
2023-01-05T01:45:47.896Z,10.26
2023-01-05T01:50:56.038Z,10.18
2023-01-05T01:56:04.599Z,10.21
2023-01-05T02:01:10.836Z,10.15
2023-01-05T02:06:16.936Z,10.20
2023-01-05T02:12:00.544Z,10.26
2023-01-05T02:17:27.339Z,10.28
2023-01-05T02:22:53.142Z,10.23
2023-01-05T02:28:35.711Z,10.24
2023-01-05T02:33:55.895Z,10.24
2023-01-05T02:39:11.105Z,10.27
2023-01-05T02:44:21.172Z,10.24
2023-01-05T02:49:29.893Z,10.24
2023-01-05T02:54:38.454Z,10.33
2023-01-05T02:59:47.039Z,10.38
2023-01-05T03:05:07.998Z,10.38
2023-01-05T03:10:33.079Z,10.47
2023-01-05T03:15:40.889Z,10.47
2023-01-05T03:20:49.901Z,10.41
2023-01-05T03:26:14.690Z,10.34
2023-01-05T03:31:46.781Z,10.36
2023-01-05T03:36:55.261Z,10.31
2023-01-05T03:42:01.545Z,10.26
2023-01-05T03:47:07.263Z,10.19
2023-01-05T03:52:13.240Z,10.18
2023-01-05T03:57:19.479Z,10.15
2023-01-05T04:02:25.677Z,10.13
2023-01-05T04:07:31.579Z,10.12
2023-01-05T04:12:37.453Z,10.07
2023-01-05T04:17:43.412Z,10.13
2023-01-05T04:22:50.040Z,10.09
2023-01-05T04:27:57.135Z,10.01
2023-01-05T04:33:02.974Z,9.99
2023-01-05T04:38:08.794Z,9.96
2023-01-05T04:43:14.507Z,10.00
2023-01-05T04:48:20.864Z,10.04
2023-01-05T04:53:26.452Z,9.99
2023-01-05T04:58:32.688Z,9.95
2023-01-05T05:03:38.182Z,9.98
2023-01-05T05:08:45.418Z,9.99
2023-01-05T05:13:51.030Z,9.89
2023-01-05T05:18:57.738Z,9.79
2023-01-05T05:24:04.768Z,9.79
2023-01-05T05:29:12.084Z,9.80
2023-01-05T05:34:17.972Z,9.74
2023-01-05T05:39:23.430Z,9.66
2023-01-05T05:44:28.885Z,9.63
2023-01-05T05:49:34.263Z,9.44
2023-01-05T05:54:39.693Z,9.42
2023-01-05T05:59:45.205Z,9.36
2023-01-05T06:04:50.730Z,9.42
2023-01-05T06:09:57.051Z,9.49
2023-01-05T06:15:02.655Z,9.50
2023-01-05T06:20:09.838Z,9.52
2023-01-05T06:25:15.979Z,9.55
2023-01-05T06:30:21.489Z,9.52
2023-01-05T06:35:27.206Z,9.52
2023-01-05T06:40:32.890Z,9.58
2023-01-05T06:45:38.417Z,9.51
2023-01-05T06:50:43.992Z,9.42
2023-01-05T06:55:49.422Z,9.35
2023-01-05T07:00:57.982Z,9.32
2023-01-05T07:06:05.989Z,9.39
2023-01-05T07:11:11.853Z,9.35
2023-01-05T07:16:18.590Z,9.37
2023-01-05T07:21:24.093Z,9.43
2023-01-05T07:26:29.530Z,9.41
2023-01-05T07:31:34.950Z,9.42
2023-01-05T07:36:40.581Z,9.38
2023-01-05T07:41:46.405Z,9.43
2023-01-05T07:46:53.909Z,9.33
2023-01-05T07:51:59.369Z,9.41
2023-01-05T07:57:05.091Z,9.47
2023-01-05T08:02:11.562Z,9.49
2023-01-05T08:07:17.151Z,9.50
2023-01-05T08:12:22.613Z,9.51
2023-01-05T08:17:28.011Z,9.46
2023-01-05T08:22:33.620Z,9.53
2023-01-05T08:27:39.011Z,9.53
2023-01-05T08:32:44.528Z,9.61
2023-01-05T08:37:49.982Z,9.57
2023-01-05T08:42:55.362Z,9.50
2023-01-05T08:48:02.416Z,9.59
2023-01-05T08:53:07.878Z,9.58
2023-01-05T08:58:13.310Z,9.60
2023-01-05T09:03:18.764Z,9.75
2023-01-05T09:08:24.209Z,9.68
2023-01-05T09:13:29.658Z,9.67
2023-01-05T09:18:35.108Z,9.65
2023-01-05T09:23:41.419Z,9.73
2023-01-05T09:28:47.271Z,9.78
2023-01-05T09:33:53.193Z,9.74
2023-01-05T09:38:59.015Z,9.62
2023-01-05T09:44:18.220Z,9.61
2023-01-05T09:49:25.795Z,9.64
2023-01-05T09:54:34.903Z,9.45
2023-01-05T09:59:46.175Z,9.48
2023-01-05T10:04:54.333Z,9.33
2023-01-05T10:10:02.997Z,9.38
2023-01-05T10:15:20.754Z,9.46
2023-01-05T10:20:44.613Z,9.43
2023-01-05T10:26:02.553Z,9.41
2023-01-05T10:31:19.966Z,9.40
2023-01-05T10:42:05.567Z,9.23
2023-01-05T10:47:14.768Z,9.12
2023-01-05T10:52:23.376Z,8.73
2023-01-05T10:57:36.693Z,8.68
2023-01-05T11:02:44.925Z,8.73
2023-01-05T11:07:57.895Z,8.74
2023-01-05T11:13:09.703Z,8.82
2023-01-05T11:18:27.074Z,8.61
2023-01-05T11:23:41.764Z,8.45
2023-01-05T11:29:01.586Z,8.22
2023-01-05T11:34:10.410Z,8.07
2023-01-05T11:39:36.728Z,7.78
2023-01-05T11:44:50.919Z,7.53
2023-01-05T11:50:07.157Z,7.46
2023-01-05T11:55:40.102Z,7.25
2023-01-05T12:01:23.484Z,7.08
2023-01-05T12:06:34.582Z,6.83
2023-01-05T12:11:45.810Z,6.66
2023-01-05T12:16:54.513Z,6.48
2023-01-05T12:22:32.755Z,6.30
2023-01-05T12:28:23.762Z,6.43
2023-01-05T12:39:06.111Z,6.28
2023-01-05T12:44:26.297Z,6.36
2023-01-05T12:49:40.785Z,6.25
2023-01-05T12:54:52.682Z,6.25
2023-01-05T13:00:01.171Z,6.14
2023-01-05T13:05:21.403Z,6.21
2023-01-05T13:10:32.825Z,6.34
2023-01-05T13:15:42.216Z,6.34
2023-01-05T13:20:53.639Z,6.31
2023-01-05T13:26:07.780Z,6.34
2023-01-05T13:31:36.075Z,6.40
2023-01-05T13:36:56.033Z,6.31
2023-01-05T13:42:23.947Z,6.19
2023-01-05T13:47:47.444Z,6.19
2023-01-05T13:53:01.688Z,6.25
2023-01-05T13:58:09.559Z,6.24
2023-01-05T14:03:23.215Z,6.26
2023-01-05T14:08:37.735Z,6.25
2023-01-05T14:13:52.285Z,6.23
2023-01-05T14:19:16.033Z,6.19
2023-01-05T14:24:33.528Z,7.00
2023-01-05T14:29:59.598Z,6.33
2023-01-05T14:35:26.337Z,6.57
2023-01-05T14:40:51.234Z,6.27
2023-01-05T14:46:02.565Z,6.25
2023-01-05T14:51:12.853Z,6.13
2023-01-05T14:56:21.354Z,6.09
2023-01-05T15:07:13.018Z,6.63
2023-01-05T15:12:23.928Z,6.63
2023-01-05T15:17:45.947Z,6.24
2023-01-05T15:23:03.658Z,6.06
2023-01-05T15:28:46.563Z,6.13
2023-01-05T15:33:55.043Z,6.02
2023-01-05T15:39:00.951Z,5.98
2023-01-05T15:44:07.148Z,5.74
2023-01-05T15:49:27.705Z,5.51
2023-01-05T15:54:34.483Z,5.51
2023-01-05T15:59:41.890Z,5.50
2023-01-05T16:04:47.471Z,5.48
2023-01-05T16:09:52.999Z,5.40
2023-01-05T16:15:01.876Z,5.25
2023-01-05T16:20:10.377Z,5.30
2023-01-05T16:25:18.908Z,5.25
2023-01-05T16:30:33.614Z,5.08
2023-01-05T16:35:47.699Z,5.08
2023-01-05T16:41:12.379Z,5.21
2023-01-05T16:46:22.540Z,5.21
2023-01-05T16:51:37.450Z,5.30
2023-01-05T16:56:58.056Z,5.32
2023-01-05T17:02:06.489Z,5.42
2023-01-05T17:07:12.520Z,5.36
2023-01-05T17:12:18.538Z,5.42
2023-01-05T17:17:25.003Z,5.45
2023-01-05T17:22:30.509Z,5.41
2023-01-05T17:27:36.043Z,5.51
2023-01-05T17:32:41.447Z,5.48
2023-01-05T17:37:47.063Z,5.50
2023-01-05T17:42:52.575Z,5.46
2023-01-05T17:47:58.433Z,5.55
2023-01-05T17:53:05.943Z,5.52
2023-01-05T17:58:14.471Z,5.52
2023-01-05T18:03:22.545Z,5.54
2023-01-05T18:08:28.806Z,5.46
2023-01-05T18:13:34.969Z,5.46
2023-01-05T18:18:41.926Z,5.55
2023-01-05T18:23:47.510Z,5.59
2023-01-05T18:28:54.679Z,5.56
2023-01-05T18:34:00.134Z,5.51
2023-01-05T18:39:06.456Z,5.56
2023-01-05T18:44:11.989Z,5.67
2023-01-05T18:49:18.418Z,5.55
2023-01-05T18:54:24.055Z,5.67
2023-01-05T18:59:29.525Z,5.72
2023-01-05T19:04:35.135Z,5.71
2023-01-05T19:09:40.638Z,5.58
2023-01-05T19:14:46.080Z,5.63
2023-01-05T19:19:51.473Z,5.58
2023-01-05T19:24:58.675Z,5.53
2023-01-05T19:30:04.200Z,5.53
2023-01-05T19:35:10.303Z,3.87
2023-01-05T19:40:15.936Z,5.49
2023-01-05T19:45:21.594Z,5.45
2023-01-05T19:50:27.289Z,5.31
2023-01-05T19:55:32.669Z,5.27
2023-01-05T20:00:38.057Z,5.28
2023-01-05T20:05:43.668Z,5.36
2023-01-05T20:10:49.215Z,5.36
2023-01-05T20:15:54.636Z,5.34
2023-01-05T20:21:01.565Z,5.43
2023-01-05T20:26:13.106Z,5.43
2023-01-05T20:31:25.913Z,5.43
2023-01-05T20:36:31.749Z,5.46
2023-01-05T20:41:40.093Z,5.37
2023-01-05T20:46:48.476Z,5.37
2023-01-05T20:51:55.039Z,5.42
2023-01-05T20:57:22.832Z,5.36
2023-01-05T21:02:28.333Z,5.36
2023-01-05T21:07:33.872Z,5.40
2023-01-05T21:12:39.493Z,5.44
2023-01-05T21:17:44.987Z,5.44
2023-01-05T21:22:50.485Z,5.54
2023-01-05T21:27:55.999Z,5.54
2023-01-05T21:33:01.460Z,5.47
2023-01-05T21:38:07.712Z,5.49
2023-01-05T21:43:13.201Z,5.42
2023-01-05T21:48:18.615Z,5.39
2023-01-05T21:53:42.053Z,5.48
2023-01-05T21:58:47.979Z,5.60
2023-01-05T22:03:53.751Z,5.50
2023-01-05T22:08:59.693Z,5.48
2023-01-05T22:14:05.446Z,5.55
2023-01-05T22:19:14.160Z,5.53
2023-01-05T22:24:19.707Z,5.47
2023-01-05T22:29:25.735Z,5.49
2023-01-05T22:34:32.001Z,5.49
2023-01-05T22:39:37.469Z,5.52
2023-01-05T22:44:42.996Z,5.57
2023-01-05T22:49:48.541Z,5.57
2023-01-05T22:54:54.075Z,5.55
2023-01-05T22:59:59.799Z,5.60
2023-01-05T23:05:05.846Z,5.60
2023-01-05T23:10:11.869Z,5.60
2023-01-05T23:15:17.502Z,5.54
2023-01-05T23:20:24.657Z,5.62
2023-01-05T23:25:30.030Z,5.53
2023-01-05T23:30:35.433Z,5.59
2023-01-05T23:35:41.017Z,5.59
2023-01-05T23:40:48.506Z,5.65
2023-01-05T23:45:55.835Z,5.71
2023-01-05T23:51:01.346Z,5.60
2023-01-05T23:56:12.923Z,5.60
